Time;durP1;ratioP1;P1;durP2;ratioP2;P2;SDS_P1;SDS_P2;PMS_P1;PMS_P2;Temp;Humidity;BMP_temperature;BMP_pressure;BME280_temperature;BME280_humidity;BME280_pressure;Samples;Min_cycle;Max_cycle;Signal;HPM_P1;HPM_P2
2021/08/22 00:00:16;;;;;;;22.13;20.02;;;18.10;99.90;;;;;;5007024;28;20487;-73
2021/08/22 00:02:41;;;;;;;22.52;20.33;;;18.10;99.90;;;;;;5006341;28;20042;-73
2021/08/22 00:05:07;;;;;;;21.13;19.05;;;18.10;99.90;;;;;;5008178;28;20099;-73
2021/08/22 00:07:33;;;;;;;21.45;19.52;;;18.10;99.90;;;;;;5008697;28;20046;-73
2021/08/22 00:09:59;;;;;;;23.13;20.73;;;18.10;99.90;;;;;;5007154;28;20041;-72
2021/08/22 00:12:25;;;;;;;20.85;18.80;;;18.10;99.90;;;;;;5005937;28;20511;-73
2021/08/22 00:14:51;;;;;;;24.00;21.70;;;18.10;99.90;;;;;;5007064;28;20108;-73
2021/08/22 00:17:17;;;;;;;21.35;19.35;;;18.10;99.90;;;;;;5006401;28;20065;-73
2021/08/22 00:19:43;;;;;;;22.15;20.15;;;18.10;99.90;;;;;;5007806;28;20091;-72
2021/08/22 00:22:08;;;;;;;22.95;20.77;;;18.10;99.90;;;;;;5006348;28;20038;-73
2021/08/22 00:24:34;;;;;;;24.75;22.38;;;18.10;99.90;;;;;;5006397;28;20111;-73
2021/08/22 00:27:06;;;;;;;22.48;20.35;;;18.00;99.90;;;;;;5005445;28;20087;-72
2021/08/22 00:29:32;;;;;;;23.50;21.10;;;18.00;99.90;;;;;;5006348;28;20046;-73
2021/08/22 00:32:02;;;;;;;22.52;20.42;;;18.00;99.90;;;;;;4999001;28;20091;-73
2021/08/22 00:34:28;;;;;;;23.83;21.52;;;18.00;99.90;;;;;;5007203;28;20050;-73
2021/08/22 00:36:55;;;;;;;24.85;22.55;;;18.00;99.90;;;;;;5007179;28;20344;-73
2021/08/22 00:39:29;;;;;;;22.38;20.27;;;18.00;99.90;;;;;;5005560;28;20395;-73
2021/08/22 00:41:55;;;;;;;24.92;22.50;;;18.00;99.90;;;;;;4999832;28;20038;-73
2021/08/22 00:44:22;;;;;;;26.30;23.67;;;18.00;99.90;;;;;;5007007;28;20034;-73
2021/08/22 00:46:56;;;;;;;25.98;23.50;;;18.00;99.90;;;;;;5007560;28;20046;-73
2021/08/22 00:49:28;;;;;;;24.40;21.92;;;18.00;99.90;;;;;;5007143;28;20057;-73
2021/08/22 00:51:54;;;;;;;25.75;23.30;;;18.00;99.90;;;;;;5007032;28;20713;-73
2021/08/22 00:54:20;;;;;;;25.02;22.65;;;17.90;99.90;;;;;;5006916;28;20114;-73
2021/08/22 00:56:46;;;;;;;25.83;23.35;;;18.00;99.90;;;;;;5005217;28;20124;-73
2021/08/22 00:59:14;;;;;;;26.85;24.25;;;18.00;99.90;;;;;;5008397;28;20034;-73
2021/08/22 01:01:43;;;;;;;27.77;24.90;;;17.90;99.90;;;;;;5008993;28;20098;-73
2021/08/22 01:04:19;;;;;;;28.58;25.85;;;17.90;99.90;;;;;;5008642;28;20038;-73
2021/08/22 01:07:05;;;;;;;25.83;23.33;;;17.90;99.90;;;;;;5005184;28;20042;-73
2021/08/22 01:09:36;;;;;;;28.20;25.42;;;17.90;99.90;;;;;;5007154;28;20045;-73
2021/08/22 01:12:05;;;;;;;29.10;26.17;;;17.90;99.90;;;;;;5008205;28;20045;-73
2021/08/22 01:14:35;;;;;;;28.20;25.50;;;17.90;99.90;;;;;;5009832;28;20038;-73
2021/08/22 01:17:02;;;;;;;30.25;27.35;;;17.90;99.90;;;;;;5007466;28;20046;-73
2021/08/22 01:19:34;;;;;;;28.70;26.00;;;17.90;99.90;;;;;;5008679;28;20041;-73
2021/08/22 01:22:03;;;;;;;29.27;26.38;;;17.90;99.90;;;;;;5007410;28;20091;-73
2021/08/22 01:24:30;;;;;;;31.10;28.08;;;17.80;99.90;;;;;;5007887;28;20045;-73
2021/08/22 01:26:59;;;;;;;30.83;27.92;;;17.80;99.90;;;;;;5007777;28;20046;-73
2021/08/22 01:29:31;;;;;;;30.98;28.08;;;17.80;99.90;;;;;;5007899;28;20034;-73
2021/08/22 01:32:00;;;;;;;31.73;28.63;;;17.80;99.90;;;;;;5009257;28;20086;-73
2021/08/22 01:34:28;;;;;;;30.02;27.23;;;17.80;99.90;;;;;;5006340;28;20069;-73
2021/08/22 01:36:56;;;;;;;30.15;27.23;;;17.80;99.90;;;;;;5010624;28;20038;-73
2021/08/22 01:39:22;;;;;;;30.25;27.27;;;17.80;99.90;;;;;;5009395;28;20116;-73
2021/08/22 01:41:48;;;;;;;31.33;28.17;;;17.80;99.90;;;;;;5005807;28;20042;-73
2021/08/22 01:44:16;;;;;;;30.33;27.38;;;17.80;99.90;;;;;;5006485;28;20087;-73
2021/08/22 01:46:43;;;;;;;30.02;27.13;;;17.80;99.90;;;;;;5008602;28;20038;-73
2021/08/22 01:49:10;;;;;;;29.00;26.10;;;17.80;99.90;;;;;;4999420;28;20045;-73
2021/08/22 01:51:37;;;;;;;29.08;26.33;;;17.80;99.90;;;;;;5009815;28;20488;-70
2021/08/22 01:54:06;;;;;;;29.42;26.55;;;17.80;99.90;;;;;;5011000;28;20042;-70
2021/08/22 01:56:37;;;;;;;27.30;24.67;;;17.80;99.90;;;;;;5008394;28;20041;-70
2021/08/22 01:59:03;;;;;;;27.42;24.67;;;17.80;99.90;;;;;;5008962;28;20395;-70
2021/08/22 02:01:29;;;;;;;29.25;26.25;;;17.80;99.90;;;;;;5008741;28;20518;-70
2021/08/22 02:04:11;;;;;;;28.98;26.38;;;17.90;99.90;;;;;;5008103;28;20098;-70
2021/08/22 02:06:54;;;;;;;28.40;25.60;;;17.80;99.90;;;;;;5009393;28;20037;-70
2021/08/22 02:09:30;;;;;;;29.05;26.33;;;17.90;99.90;;;;;;5006803;28;20432;-70
2021/08/22 02:12:07;;;;;;;28.33;25.73;;;17.90;99.90;;;;;;5005555;28;20234;-70
2021/08/22 02:14:35;;;;;;;29.88;27.08;;;18.00;99.90;;;;;;5008180;28;20045;-71
2021/08/22 02:17:03;;;;;;;26.92;24.35;;;17.90;99.90;;;;;;5017029;23;20637;-70
2021/08/22 02:19:30;;;;;;;27.00;24.45;;;17.90;99.90;;;;;;5030538;28;20119;-70
2021/08/22 02:21:57;;;;;;;29.58;26.55;;;17.90;99.90;;;;;;5025408;28;20486;-70
2021/08/22 02:24:24;;;;;;;25.40;22.83;;;17.90;99.90;;;;;;5019691;28;20049;-70
2021/08/22 02:26:49;;;;;;;28.77;25.80;;;18.00;99.90;;;;;;5019307;28;20485;-70
2021/08/22 02:29:15;;;;;;;26.98;24.58;;;18.00;99.90;;;;;;5025648;28;20063;-70
2021/08/22 02:31:40;;;;;;;25.80;23.40;;;18.00;99.90;;;;;;5022480;28;20114;-70
2021/08/22 02:34:06;;;;;;;27.73;25.02;;;18.00;99.90;;;;;;5018764;28;20367;-70
2021/08/22 02:36:32;;;;;;;27.65;24.95;;;18.00;99.90;;;;;;5028192;28;20059;-71
2021/08/22 02:38:57;;;;;;;27.23;24.63;;;18.00;99.90;;;;;;5028195;28;20048;-70
2021/08/22 02:41:23;;;;;;;27.17;24.52;;;18.00;99.90;;;;;;5018259;28;20038;-70
2021/08/22 02:43:49;;;;;;;27.83;25.00;;;18.00;99.90;;;;;;5030102;28;20125;-70
2021/08/22 02:46:15;;;;;;;27.10;24.45;;;18.00;99.90;;;;;;5027462;28;20048;-70
2021/08/22 02:48:41;;;;;;;27.38;24.75;;;18.00;99.90;;;;;;5025800;28;20046;-70
2021/08/22 02:51:07;;;;;;;30.00;27.08;;;18.00;99.90;;;;;;5028543;28;20037;-70
2021/08/22 02:53:32;;;;;;;27.67;24.98;;;18.00;99.90;;;;;;5020590;28;20094;-70
2021/08/22 02:55:58;;;;;;;31.08;27.55;;;18.10;99.90;;;;;;5027365;28;20045;-70
2021/08/22 02:58:24;;;;;;;29.35;26.52;;;18.00;99.90;;;;;;5023828;28;20706;-70
2021/08/22 03:00:50;;;;;;;30.75;27.67;;;18.10;99.90;;;;;;5025790;28;20030;-70
2021/08/22 03:03:16;;;;;;;31.17;27.95;;;18.00;99.90;;;;;;5029512;28;20061;-70
2021/08/22 03:05:41;;;;;;;33.45;29.95;;;18.10;99.90;;;;;;5027845;28;20061;-70
2021/08/22 03:08:07;;;;;;;32.20;28.80;;;17.90;99.90;;;;;;5028377;28;20037;-70
2021/08/22 03:10:34;;;;;;;32.53;29.17;;;17.90;99.90;;;;;;5021221;28;20046;-70
2021/08/22 03:13:01;;;;;;;33.47;29.83;;;17.80;99.90;;;;;;5020629;28;20046;-70
2021/08/22 03:15:27;;;;;;;30.52;27.38;;;17.70;99.90;;;;;;5027450;28;20052;-70
2021/08/22 03:17:52;;;;;;;30.73;27.77;;;17.70;99.90;;;;;;5010307;28;20046;-70
2021/08/22 03:20:18;;;;;;;32.25;28.92;;;17.80;99.90;;;;;;5016784;28;20045;-70
2021/08/22 03:22:44;;;;;;;33.33;29.85;;;17.80;99.90;;;;;;5028666;28;20065;-70
2021/08/22 03:25:11;;;;;;;30.58;27.48;;;17.70;99.90;;;;;;5028677;28;20045;-70
2021/08/22 03:27:38;;;;;;;32.13;29.08;;;17.70;99.90;;;;;;5014378;28;20038;-70
2021/08/22 03:30:05;;;;;;;32.20;29.10;;;17.70;99.90;;;;;;5019388;28;20516;-70
2021/08/22 03:32:31;;;;;;;35.53;30.40;;;17.70;99.90;;;;;;5020224;28;20045;-70
2021/08/22 03:34:57;;;;;;;35.50;31.80;;;17.70;99.90;;;;;;5022108;28;20045;-70
2021/08/22 03:37:23;;;;;;;33.10;29.75;;;17.70;99.90;;;;;;5026081;28;20120;-70
2021/08/22 03:39:49;;;;;;;37.28;31.75;;;17.60;99.90;;;;;;5024195;28;20041;-70
2021/08/22 03:42:15;;;;;;;32.75;29.35;;;17.50;99.90;;;;;;5026326;28;20090;-70
2021/08/22 03:44:41;;;;;;;32.50;29.30;;;17.60;99.90;;;;;;5028762;28;20048;-69
2021/08/22 03:47:07;;;;;;;33.15;29.67;;;17.60;99.90;;;;;;5026491;28;20478;-70
2021/08/22 03:49:34;;;;;;;31.92;28.73;;;17.60;99.90;;;;;;5018218;28;20091;-71
2021/08/22 03:51:59;;;;;;;31.60;28.40;;;17.60;99.90;;;;;;5021565;28;20038;-70
2021/08/22 03:54:25;;;;;;;35.20;31.25;;;17.60;99.90;;;;;;5027843;28;20444;-70
2021/08/22 03:56:51;;;;;;;32.05;28.95;;;17.60;99.90;;;;;;5026320;28;20440;-70
2021/08/22 03:59:16;;;;;;;34.35;31.00;;;17.60;99.90;;;;;;5026028;28;20129;-70
2021/08/22 04:01:42;;;;;;;34.25;30.77;;;17.60;99.90;;;;;;5026958;28;20486;-70
2021/08/22 04:04:08;;;;;;;35.00;31.35;;;17.60;99.90;;;;;;5026579;28;20045;-70
2021/08/22 04:06:34;;;;;;;35.95;32.10;;;17.50;99.90;;;;;;5017105;28;20038;-70
2021/08/22 04:09:03;;;;;;;34.40;30.80;;;17.40;99.90;;;;;;5016334;28;20033;-70
2021/08/22 04:11:30;;;;;;;33.42;30.05;;;17.50;99.90;;;;;;5014562;28;20112;-70
2021/08/22 04:14:02;;;;;;;32.75;29.45;;;17.50;99.90;;;;;;5018206;28;20034;-70
2021/08/22 04:16:27;;;;;;;32.65;29.48;;;17.50;99.90;;;;;;5018336;28;20103;-70
2021/08/22 04:18:53;;;;;;;32.17;28.92;;;17.50;99.90;;;;;;5018532;28;20440;-70
2021/08/22 04:21:18;;;;;;;32.22;29.05;;;17.50;99.90;;;;;;5015828;28;20606;-70
2021/08/22 04:23:44;;;;;;;37.88;33.55;;;17.50;99.90;;;;;;5018421;28;20050;-70
2021/08/22 04:26:10;;;;;;;36.00;32.10;;;17.50;99.90;;;;;;5017588;28;20504;-71
2021/08/22 04:28:36;;;;;;;36.92;32.17;;;17.40;99.90;;;;;;5015487;28;20538;-71
2021/08/22 04:31:02;;;;;;;36.33;32.53;;;17.30;99.90;;;;;;5014915;28;20045;-71
2021/08/22 04:33:28;;;;;;;39.78;35.50;;;17.40;99.90;;;;;;5020483;28;20045;-71
2021/08/22 04:35:54;;;;;;;43.55;37.58;;;17.30;99.90;;;;;;5026801;28;20405;-71
2021/08/22 04:38:20;;;;;;;38.47;34.58;;;17.20;99.90;;;;;;5027726;28;20037;-71
2021/08/22 04:40:46;;;;;;;38.17;34.28;;;17.20;99.90;;;;;;5028110;28;20049;-71
2021/08/22 04:43:11;;;;;;;42.65;37.53;;;17.30;99.90;;;;;;5027742;28;20071;-71
2021/08/22 04:45:37;;;;;;;40.78;36.60;;;17.20;99.90;;;;;;5025438;28;20034;-71
2021/08/22 04:48:04;;;;;;;45.72;39.65;;;17.30;99.90;;;;;;5027725;28;20050;-71
2021/08/22 04:50:29;;;;;;;46.63;41.72;;;17.20;99.90;;;;;;5020982;28;20558;-71
2021/08/22 04:52:55;;;;;;;53.13;43.33;;;17.10;99.90;;;;;;5023575;28;20037;-71
2021/08/22 04:55:21;;;;;;;47.30;42.13;;;17.10;99.90;;;;;;5021330;28;20042;-70
2021/08/22 04:57:46;;;;;;;47.92;42.75;;;17.10;99.90;;;;;;5024993;28;20042;-71
2021/08/22 05:00:13;;;;;;;47.00;41.85;;;17.10;99.90;;;;;;5022362;28;20643;-71
2021/08/22 05:02:38;;;;;;;52.33;44.28;;;17.10;99.90;;;;;;5018367;28;20609;-71
2021/08/22 05:05:04;;;;;;;49.22;43.88;;;17.10;99.90;;;;;;5026944;28;20057;-71
2021/08/22 05:07:30;;;;;;;49.13;43.85;;;17.10;99.90;;;;;;5019306;28;20046;-71
2021/08/22 05:09:55;;;;;;;49.22;43.92;;;17.10;99.90;;;;;;5008130;28;20041;-70
2021/08/22 05:12:21;;;;;;;47.03;42.13;;;17.10;99.90;;;;;;5018456;28;20422;-70
2021/08/22 05:14:46;;;;;;;46.33;41.50;;;17.20;99.90;;;;;;5026988;28;20065;-70
2021/08/22 05:17:12;;;;;;;46.80;41.83;;;17.20;99.90;;;;;;5026228;28;20428;-70
2021/08/22 05:19:38;;;;;;;40.35;36.38;;;17.30;99.90;;;;;;5026986;28;20072;-70
2021/08/22 05:22:04;;;;;;;47.83;42.72;;;17.30;99.90;;;;;;5016952;28;20455;-70
2021/08/22 05:24:30;;;;;;;41.97;37.70;;;17.30;99.90;;;;;;5027138;28;20494;-70
2021/08/22 05:26:56;;;;;;;49.33;44.13;;;17.30;99.90;;;;;;5022335;28;20057;-70
2021/08/22 05:29:22;;;;;;;44.63;40.35;;;17.30;99.90;;;;;;5027311;28;20459;-71
2021/08/22 05:31:48;;;;;;;46.88;41.75;;;17.30;99.90;;;;;;5025975;28;20061;-71
2021/08/22 05:34:13;;;;;;;47.53;42.05;;;17.30;99.90;;;;;;5024815;28;20033;-71
2021/08/22 05:36:40;;;;;;;47.85;42.85;;;17.30;99.90;;;;;;5026317;28;20072;-71
2021/08/22 05:39:08;;;;;;;44.70;40.03;;;17.30;99.90;;;;;;5025455;28;20045;-71
2021/08/22 05:41:34;;;;;;;46.42;40.13;;;17.40;99.90;;;;;;5022315;28;20419;-71
2021/08/22 05:44:00;;;;;;;46.45;41.72;;;17.40;99.90;;;;;;5021339;28;20467;-71
2021/08/22 05:46:27;;;;;;;45.08;40.35;;;17.40;99.90;;;;;;5030772;28;20514;-71
2021/08/22 05:48:54;;;;;;;46.00;41.33;;;17.30;99.90;;;;;;5020946;28;20102;-71
2021/08/22 05:51:20;;;;;;;42.22;38.08;;;17.40;99.90;;;;;;5031023;28;20491;-71
2021/08/22 05:53:47;;;;;;;45.78;41.10;;;17.40;99.90;;;;;;5028147;28;20041;-71
2021/08/22 05:56:13;;;;;;;45.15;40.40;;;17.40;99.90;;;;;;5028805;28;20436;-71
2021/08/22 05:58:39;;;;;;;41.28;37.28;;;17.40;99.90;;;;;;5030791;28;20470;-71
2021/08/22 06:01:06;;;;;;;48.03;42.65;;;17.40;99.90;;;;;;5025332;28;20049;-71
2021/08/22 06:03:32;;;;;;;42.10;38.00;;;17.40;99.90;;;;;;5047042;28;20033;-71
2021/08/22 06:05:58;;;;;;;44.08;39.47;;;17.40;99.90;;;;;;5030510;28;20471;-71
2021/08/22 06:08:24;;;;;;;42.83;38.55;;;17.40;99.90;;;;;;5017640;28;20034;-71
2021/08/22 06:10:49;;;;;;;41.88;37.78;;;17.50;99.90;;;;;;5030706;28;20090;-71
2021/08/22 06:13:15;;;;;;;44.03;39.28;;;17.40;99.90;;;;;;5026984;28;20064;-70
2021/08/22 06:15:41;;;;;;;41.00;37.10;;;17.50;99.90;;;;;;5029630;28;20077;-70
2021/08/22 06:18:11;;;;;;;40.05;36.10;;;17.40;99.90;;;;;;5025388;28;20056;-70
2021/08/22 06:20:36;;;;;;;36.38;33.20;;;17.40;99.90;;;;;;5025200;28;20041;-71
2021/08/22 06:23:04;;;;;;;33.75;30.67;;;17.50;99.90;;;;;;5018365;28;20045;-70
2021/08/22 06:25:30;;;;;;;35.22;32.10;;;17.40;99.90;;;;;;5025953;28;20046;-70
2021/08/22 06:27:55;;;;;;;30.77;28.15;;;17.40;99.90;;;;;;5027270;28;20042;-70
2021/08/22 06:30:21;;;;;;;34.15;30.98;;;17.40;99.90;;;;;;5021855;28;20494;-70
2021/08/22 06:32:47;;;;;;;30.88;28.25;;;17.40;99.90;;;;;;5032898;28;20036;-70
2021/08/22 06:35:12;;;;;;;32.10;29.40;;;17.40;99.90;;;;;;5032359;28;20022;-70
2021/08/22 06:37:38;;;;;;;29.33;26.80;;;17.40;99.90;;;;;;5019069;28;20033;-70
2021/08/22 06:40:05;;;;;;;36.33;33.00;;;17.50;99.90;;;;;;5025437;28;20041;-69
2021/08/22 06:42:33;;;;;;;31.90;29.10;;;17.40;99.90;;;;;;5010587;28;20479;-70
2021/08/22 06:44:59;;;;;;;32.30;29.40;;;17.40;99.90;;;;;;5022316;28;20040;-70
2021/08/22 06:47:24;;;;;;;33.13;30.13;;;17.40;99.90;;;;;;5020995;28;20472;-70
2021/08/22 06:49:51;;;;;;;33.13;30.02;;;17.40;99.90;;;;;;5010642;28;20053;-70
2021/08/22 06:52:17;;;;;;;37.13;33.78;;;17.40;99.90;;;;;;5021004;28;20095;-70
2021/08/22 06:54:43;;;;;;;40.17;36.45;;;17.40;99.90;;;;;;5029819;28;20038;-70
2021/08/22 06:57:09;;;;;;;37.78;34.45;;;17.40;99.90;;;;;;5021385;28;20030;-70
2021/08/22 06:59:35;;;;;;;37.25;33.80;;;17.30;99.90;;;;;;5029779;28;20136;-70
2021/08/22 07:02:00;;;;;;;39.28;35.42;;;17.30;99.90;;;;;;5025135;28;20125;-70
2021/08/22 07:04:26;;;;;;;38.75;35.13;;;17.30;99.90;;;;;;5024689;28;20048;-70
2021/08/22 07:06:52;;;;;;;38.03;34.35;;;17.30;99.90;;;;;;5025462;28;20040;-70
2021/08/22 07:09:18;;;;;;;37.28;33.80;;;17.30;99.90;;;;;;5031343;28;20114;-71
2021/08/22 07:11:44;;;;;;;39.08;35.28;;;17.40;99.90;;;;;;5017768;28;20036;-71
2021/08/22 07:14:10;;;;;;;38.40;34.50;;;17.30;99.90;;;;;;5029348;28;20073;-71
2021/08/22 07:16:38;;;;;;;39.10;35.30;;;17.30;99.90;;;;;;5022602;28;20103;-71
2021/08/22 07:19:04;;;;;;;38.42;34.72;;;17.30;99.90;;;;;;5027347;28;20046;-71
2021/08/22 07:21:32;;;;;;;37.58;34.00;;;17.30;99.90;;;;;;5025641;28;20046;-71
2021/08/22 07:23:57;;;;;;;38.67;34.97;;;17.30;99.90;;;;;;5027656;28;20110;-71
2021/08/22 07:26:23;;;;;;;40.53;36.50;;;17.30;99.90;;;;;;5017615;28;20041;-70
2021/08/22 07:28:49;;;;;;;39.78;35.90;;;17.30;99.90;;;;;;5027969;28;20041;-71
2021/08/22 07:31:15;;;;;;;38.17;34.30;;;17.40;99.90;;;;;;5027068;28;20209;-70
2021/08/22 07:33:45;;;;;;;41.88;37.70;;;17.40;99.90;;;;;;5032103;28;20042;-71
2021/08/22 07:36:11;;;;;;;41.95;37.60;;;17.40;99.90;;;;;;5026914;28;20120;-70
2021/08/22 07:38:37;;;;;;;38.83;34.90;;;17.40;99.90;;;;;;5028366;28;20034;-70
2021/08/22 07:41:09;;;;;;;37.42;33.63;;;17.50;99.90;;;;;;5028199;28;20046;-70
2021/08/22 07:43:35;;;;;;;36.28;32.55;;;17.50;99.90;;;;;;5027736;28;20040;-70
2021/08/22 07:46:01;;;;;;;37.65;33.65;;;17.50;99.90;;;;;;5026043;28;20033;-70
2021/08/22 07:48:26;;;;;;;36.17;32.60;;;17.60;99.90;;;;;;5020241;28;20038;-70
2021/08/22 07:50:52;;;;;;;33.72;30.23;;;17.70;99.90;;;;;;5011688;28;20049;-70
2021/08/22 07:53:18;;;;;;;36.90;33.00;;;17.80;99.90;;;;;;5019532;28;20075;-70
2021/08/22 07:55:44;;;;;;;39.90;34.45;;;17.80;99.90;;;;;;5025260;28;20037;-70
2021/08/22 07:58:12;;;;;;;37.95;33.88;;;17.90;99.90;;;;;;5017521;28;20066;-70
2021/08/22 08:00:38;;;;;;;35.58;31.67;;;18.00;99.90;;;;;;5017729;28;20125;-69
2021/08/22 08:03:04;;;;;;;33.15;29.90;;;18.00;99.90;;;;;;5026289;28;20120;-69
2021/08/22 08:05:30;;;;;;;37.28;33.47;;;18.10;99.90;;;;;;5027931;28;20045;-69
2021/08/22 08:07:56;;;;;;;35.55;31.88;;;18.10;99.90;;;;;;5028579;28;20038;-70
2021/08/22 08:10:22;;;;;;;36.40;32.50;;;18.20;99.90;;;;;;5020687;28;20375;-70
2021/08/22 08:12:47;;;;;;;35.05;31.38;;;18.20;99.90;;;;;;5024312;28;20102;-70
2021/08/22 08:15:14;;;;;;;34.60;30.92;;;18.30;99.90;;;;;;5018362;28;20061;-70
2021/08/22 08:17:39;;;;;;;35.38;31.77;;;18.30;99.90;;;;;;5019400;23;20086;-65
2021/08/22 08:20:05;;;;;;;37.22;33.13;;;18.30;99.90;;;;;;5020522;28;20037;-65
2021/08/22 08:22:31;;;;;;;33.50;29.90;;;18.40;99.90;;;;;;5021356;28;20080;-66
2021/08/22 08:24:57;;;;;;;39.13;33.08;;;18.50;99.90;;;;;;5005171;28;20073;-66
2021/08/22 08:27:23;;;;;;;40.35;33.72;;;18.60;99.90;;;;;;4992623;28;20041;-66
2021/08/22 08:29:50;;;;;;;36.33;32.35;;;18.70;99.90;;;;;;5006425;28;20106;-66
2021/08/22 08:32:15;;;;;;;35.75;31.88;;;18.80;99.90;;;;;;5006721;28;20038;-66
2021/08/22 08:34:43;;;;;;;36.13;32.42;;;18.90;99.90;;;;;;5007333;28;20034;-66
2021/08/22 08:37:08;;;;;;;34.25;30.65;;;19.00;99.90;;;;;;5008007;28;20084;-66
2021/08/22 08:39:34;;;;;;;35.00;31.30;;;19.10;99.90;;;;;;4999789;28;20097;-66
2021/08/22 08:42:16;;;;;;;35.67;31.92;;;19.10;99.90;;;;;;5006580;28;20034;-66
2021/08/22 08:44:56;;;;;;;32.70;29.30;;;19.20;99.90;;;;;;5001833;28;20030;-66
2021/08/22 08:47:24;;;;;;;33.78;30.33;;;19.30;99.90;;;;;;5003195;28;20081;-66
2021/08/22 08:49:59;;;;;;;30.38;27.48;;;19.50;99.90;;;;;;5003829;28;20057;-66
2021/08/22 08:52:34;;;;;;;34.00;30.60;;;19.50;99.90;;;;;;5006330;28;20450;-66
2021/08/22 08:55:11;;;;;;;32.95;29.48;;;19.50;99.90;;;;;;4999957;28;20038;-66
2021/08/22 08:57:36;;;;;;;30.98;27.85;;;19.60;99.90;;;;;;5007480;28;20099;-66
2021/08/22 09:00:05;;;;;;;30.90;27.85;;;19.70;99.90;;;;;;5005404;28;20034;-66
2021/08/22 09:02:30;;;;;;;31.13;28.23;;;19.90;99.90;;;;;;5010568;28;20035;-66
2021/08/22 09:05:27;;;;;;;27.55;24.98;;;20.00;99.90;;;;;;5061247;28;20042;-66
2021/08/22 09:08:11;;;;;;;30.35;27.42;;;20.10;99.90;;;;;;5002306;28;20547;-66
2021/08/22 09:11:14;;;;;;;29.00;26.30;;;20.00;99.90;;;;;;5006388;28;20091;-66
2021/08/22 09:14:18;;;;;;;27.60;25.00;;;20.00;99.90;;;;;;4997834;28;20088;-66
2021/08/22 09:17:08;;;;;;;21.80;19.83;;;19.90;99.90;;;;;;5004383;28;20049;-66
2021/08/22 09:20:11;;;;;;;21.20;19.27;;;19.70;99.90;;;;;;5006663;28;20402;-66
2021/08/22 09:23:15;;;;;;;20.67;18.88;;;19.60;99.90;;;;;;5007714;28;20099;-66
2021/08/22 09:26:18;;;;;;;19.17;17.45;;;19.70;99.90;;;;;;5005940;28;20084;-65
2021/08/22 09:29:08;;;;;;;17.50;16.10;;;19.70;99.90;;;;;;5009230;28;20034;-66
2021/08/22 09:32:12;;;;;;;15.40;13.98;;;19.80;99.90;;;;;;5004288;28;20042;-66
2021/08/22 09:35:08;;;;;;;11.40;10.50;;;20.00;99.90;;;;;;5010662;28;20040;-70
2021/08/22 09:38:23;;;;;;;9.68;8.77;;;20.10;99.90;;;;;;5009522;28;20453;-71
2021/08/22 09:41:01;;;;;;;7.72;7.13;;;20.30;99.90;;;;;;5041147;28;20042;-71
2021/08/22 09:43:39;;;;;;;7.65;7.05;;;20.50;99.90;;;;;;5010471;28;20034;-71
2021/08/22 09:46:30;;;;;;;7.07;6.47;;;20.60;99.90;;;;;;5009089;28;20046;-72
2021/08/22 09:49:33;;;;;;;5.45;4.95;;;20.80;99.90;;;;;;4981387;28;20042;-72
2021/08/22 09:52:37;;;;;;;3.55;3.35;;;20.90;99.90;;;;;;5011400;28;20034;-72
2021/08/22 09:55:21;;;;;;;4.40;4.00;;;21.00;99.90;;;;;;5011451;28;20042;-72
2021/08/22 09:58:06;;;;;;;4.25;3.30;;;21.10;99.90;;;;;;5008194;28;20084;-72
2021/08/22 10:00:53;;;;;;;3.60;3.33;;;21.10;99.90;;;;;;5005672;28;20041;-72
2021/08/22 10:03:57;;;;;;;3.50;3.20;;;21.10;99.90;;;;;;5017308;28;20045;-72
2021/08/22 10:07:04;;;;;;;4.38;3.05;;;21.00;99.90;;;;;;5027634;28;20475;-72
2021/08/22 10:09:59;;;;;;;3.50;3.20;;;20.90;99.90;;;;;;4991601;28;20053;-71
2021/08/22 10:12:24;;;;;;;3.60;3.30;;;20.90;99.90;;;;;;5007216;28;20141;-71
2021/08/22 10:14:50;;;;;;;4.63;3.83;;;21.00;99.90;;;;;;5010377;28;20113;-73
2021/08/22 10:17:26;;;;;;;5.20;4.80;;;21.10;99.90;;;;;;5008770;28;20042;-73
2021/08/22 10:19:52;;;;;;;5.13;4.68;;;21.20;99.90;;;;;;5009132;28;20046;-71
2021/08/22 10:22:38;;;;;;;6.60;6.00;;;21.30;99.90;;;;;;5009778;28;20465;-72
2021/08/22 10:25:05;;;;;;;7.68;7.07;;;21.50;99.90;;;;;;5009767;28;20078;-73
2021/08/22 10:27:35;;;;;;;8.70;7.78;;;21.70;99.90;;;;;;5007964;28;20641;-73
2021/08/22 10:30:04;;;;;;;7.88;7.10;;;21.80;99.90;;;;;;5010094;28;20120;-73
2021/08/22 10:32:31;;;;;;;8.50;7.80;;;22.00;99.90;;;;;;5006394;28;20046;-73
2021/08/22 10:35:13;;;;;;;8.60;7.97;;;22.20;99.90;;;;;;5010115;28;20457;-73
2021/08/22 10:37:40;;;;;;;10.10;6.68;;;22.20;99.90;;;;;;5008554;28;20129;-73
2021/08/22 10:40:26;;;;;;;7.28;6.50;;;22.30;99.90;;;;;;5008435;28;20463;-72
2021/08/22 10:42:57;;;;;;;6.25;5.75;;;22.40;99.90;;;;;;5009085;28;20070;-72
2021/08/22 10:45:41;;;;;;;;;;;22.40;99.90;;;;;;5009966;28;20029;-72
2021/08/22 10:48:32;;;;;;;5.43;4.93;;;22.50;99.90;;;;;;4988853;28;19917;-72
2021/08/22 10:51:02;;;;;;;6.38;4.70;;;22.50;99.90;;;;;;5002298;28;20232;-73
2021/08/22 10:53:27;;;;;;;5.15;4.75;;;22.70;99.90;;;;;;5006333;28;20038;-73
2021/08/22 10:55:54;;;;;;;5.05;4.63;;;22.80;99.90;;;;;;5010174;28;20394;-73
2021/08/22 10:58:20;;;;;;;4.68;4.38;;;23.00;99.90;;;;;;5010074;28;20474;-73
2021/08/22 11:00:46;;;;;;;4.28;3.97;;;23.10;99.90;;;;;;5010000;28;20038;-73
2021/08/22 11:03:21;;;;;;;4.18;3.88;;;23.20;99.90;;;;;;5009540;28;20044;-73
2021/08/22 11:05:48;;;;;;;3.88;3.53;;;23.10;99.90;;;;;;5025230;28;20026;-74
2021/08/22 11:08:20;;;;;;;5.25;4.07;;;23.00;99.90;;;;;;5009709;28;20505;-73
2021/08/22 11:10:59;;;;;;;4.32;4.03;;;22.80;99.90;;;;;;5008724;28;20456;-74
2021/08/22 11:13:26;;;;;;;5.55;4.05;;;22.60;99.90;;;;;;5010079;28;20045;-74
2021/08/22 11:15:52;;;;;;;4.65;4.25;;;22.40;99.90;;;;;;5006909;28;20061;-74
2021/08/22 11:18:18;;;;;;;6.28;5.25;;;22.00;99.90;;;;;;5009754;28;20468;-74
2021/08/22 11:20:44;;;;;;;8.48;5.43;;;21.80;99.90;;;;;;5009953;28;20064;-74
2021/08/22 11:23:16;;;;;;;5.70;5.30;;;21.70;99.90;;;;;;5009499;28;20044;-74
2021/08/22 11:25:47;;;;;;;5.57;5.15;;;21.60;99.90;;;;;;5009955;28;20442;-74
2021/08/22 11:28:16;;;;;;;6.80;6.10;;;21.40;99.90;;;;;;5018117;28;20040;-74
2021/08/22 11:30:42;;;;;;;5.63;5.20;;;21.20;99.90;;;;;;5029588;28;20049;-74
2021/08/22 11:33:09;;;;;;;5.65;5.03;;;21.10;99.90;;;;;;5019352;28;20062;-74
2021/08/22 11:35:39;;;;;;;4.68;4.15;;;21.00;99.90;;;;;;5008358;28;20033;-74
2021/08/22 11:38:05;;;;;;;4.20;3.90;;;20.90;99.90;;;;;;5007593;28;20038;-74
2021/08/22 11:40:33;;;;;;;5.38;3.95;;;20.90;99.90;;;;;;5005200;28;20050;-74
2021/08/22 11:43:02;;;;;;;4.38;3.97;;;20.90;99.90;;;;;;5012118;28;20112;-73
2021/08/22 11:45:34;;;;;;;3.95;3.60;;;20.80;99.90;;;;;;5009060;28;20100;-73
2021/08/22 11:48:01;;;;;;;3.95;3.65;;;20.90;99.90;;;;;;5009550;28;20125;-74
2021/08/22 11:50:28;;;;;;;4.40;4.00;;;20.90;99.90;;;;;;5005152;28;20042;-73
2021/08/22 11:52:55;;;;;;;4.55;4.15;;;21.00;99.90;;;;;;5006703;28;20121;-73
2021/08/22 11:55:23;;;;;;;6.70;6.07;;;21.10;99.90;;;;;;5011306;28;20386;-73
2021/08/22 11:57:49;;;;;;;8.30;7.53;;;21.20;99.90;;;;;;5004510;28;20050;-73
2021/08/22 12:00:19;;;;;;;7.70;7.05;;;21.30;99.90;;;;;;5009931;28;20087;-73
2021/08/22 12:03:02;;;;;;;9.38;7.32;;;21.50;99.90;;;;;;5010018;28;20049;-73
2021/08/22 12:05:29;;;;;;;6.57;6.07;;;21.70;99.90;;;;;;5008336;28;20045;-73
2021/08/22 12:08:03;;;;;;;6.50;5.97;;;21.60;99.90;;;;;;5021930;28;20056;-73
2021/08/22 12:10:30;;;;;;;8.25;5.95;;;21.70;99.90;;;;;;5006810;28;20048;-73
2021/08/22 12:12:58;;;;;;;4.95;4.43;;;21.80;99.90;;;;;;5007390;28;20034;-73
2021/08/22 12:15:32;;;;;;;5.22;4.82;;;22.00;99.90;;;;;;5010491;28;20038;-73
2021/08/22 12:18:18;;;;;;;6.40;4.63;;;22.20;99.90;;;;;;5008397;28;20042;-74
2021/08/22 12:21:16;;;;;;;3.38;3.17;;;22.50;99.90;;;;;;5008328;28;20166;-73
2021/08/22 12:23:46;;;;;;;3.33;3.05;;;22.60;99.90;;;;;;5007682;28;20038;-74
2021/08/22 12:26:29;;;;;;;3.83;2.85;;;22.80;99.90;;;;;;4999330;28;20038;-74
2021/08/22 12:29:09;;;;;;;2.75;2.55;;;22.90;99.90;;;;;;5014692;28;20033;-74
2021/08/22 12:31:39;;;;;;;3.50;2.45;;;23.00;99.90;;;;;;5011540;28;20042;-74
2021/08/22 12:34:08;;;;;;;2.63;2.17;;;23.10;99.90;;;;;;5001629;28;20038;-74
2021/08/22 12:36:41;;;;;;;2.95;2.30;;;23.10;99.90;;;;;;4988908;28;20091;-74
2021/08/22 12:39:09;;;;;;;3.10;2.30;;;23.10;99.90;;;;;;4995076;28;20048;-74
2021/08/22 12:41:51;;;;;;;2.60;2.20;;;23.10;99.90;;;;;;5006825;28;20046;-74
2021/08/22 12:44:18;;;;;;;2.13;1.92;;;23.20;99.90;;;;;;5006372;28;20464;-74